sensor_id;sensor_type;location;lat;lon;timestamp;P1;durP1;ratioP1;P2;durP2;ratioP2
17528;SDS011;8882;53.192;8.184;2024-02-16T05:19:19;4.60;;;2.43;;
17528;SDS011;8882;53.192;8.184;2024-02-16T05:21:45;3.50;;;2.50;;
17528;SDS011;8882;53.192;8.184;2024-02-16T05:24:10;3.50;;;2.40;;
17528;SDS011;8882;53.192;8.184;2024-02-16T05:26:36;4.03;;;2.53;;
17528;SDS011;8882;53.192;8.184;2024-02-16T05:29:02;3.57;;;2.40;;
17528;SDS011;8882;53.192;8.184;2024-02-16T05:31:28;6.37;;;2.60;;
17528;SDS011;8882;53.192;8.184;2024-02-16T05:33:53;5.07;;;2.50;;
17528;SDS011;8882;53.192;8.184;2024-02-16T05:36:19;4.43;;;2.43;;
17528;SDS011;8882;53.192;8.184;2024-02-16T05:38:48;2.90;;;2.30;;
17528;SDS011;8882;53.192;8.184;2024-02-16T05:41:15;6.47;;;2.60;;
17528;SDS011;8882;53.192;8.184;2024-02-16T05:43:42;2.33;;;2.13;;
17528;SDS011;8882;53.192;8.184;2024-02-16T05:46:12;4.83;;;2.40;;
17528;SDS011;8882;53.192;8.184;2024-02-16T05:48:41;2.60;;;2.13;;
17528;SDS011;8882;53.192;8.184;2024-02-16T05:51:07;3.20;;;2.43;;
17528;SDS011;8882;53.192;8.184;2024-02-16T05:53:33;4.97;;;2.27;;
17528;SDS011;8882;53.192;8.184;2024-02-16T05:55:59;3.50;;;2.60;;
17528;SDS011;8882;53.192;8.184;2024-02-16T05:58:25;4.23;;;2.60;;
17528;SDS011;8882;53.192;8.184;2024-02-16T06:00:50;6.13;;;2.20;;
17528;SDS011;8882;53.192;8.184;2024-02-16T06:03:16;4.83;;;2.20;;
17528;SDS011;8882;53.192;8.184;2024-02-16T06:05:42;3.83;;;2.60;;
17528;SDS011;8882;53.192;8.184;2024-02-16T06:08:10;3.73;;;2.47;;
17528;SDS011;8882;53.192;8.184;2024-02-16T06:10:36;3.90;;;2.17;;
17528;SDS011;8882;53.192;8.184;2024-02-16T06:13:02;3.67;;;2.53;;
17528;SDS011;8882;53.192;8.184;2024-02-16T06:15:27;6.17;;;2.53;;
17528;SDS011;8882;53.192;8.184;2024-02-16T06:17:53;2.83;;;2.23;;
17528;SDS011;8882;53.192;8.184;2024-02-16T06:20:19;2.93;;;2.40;;
17528;SDS011;8882;53.192;8.184;2024-02-16T06:22:44;4.03;;;2.50;;
17528;SDS011;8882;53.192;8.184;2024-02-16T06:25:10;3.90;;;2.60;;
17528;SDS011;8882;53.192;8.184;2024-02-16T06:27:35;3.87;;;2.27;;
17528;SDS011;8882;53.192;8.184;2024-02-16T06:30:02;4.97;;;2.40;;
17528;SDS011;8882;53.192;8.184;2024-02-16T06:32:29;6.30;;;2.50;;
17528;SDS011;8882;53.192;8.184;2024-02-16T06:34:56;6.00;;;2.40;;
17528;SDS011;8882;53.192;8.184;2024-02-16T06:37:22;3.73;;;2.67;;
17528;SDS011;8882;53.192;8.184;2024-02-16T06:39:47;4.00;;;2.33;;
17528;SDS011;8882;53.192;8.184;2024-02-16T06:42:13;4.30;;;2.60;;
17528;SDS011;8882;53.192;8.184;2024-02-16T06:44:39;2.87;;;2.57;;
17528;SDS011;8882;53.192;8.184;2024-02-16T06:47:05;3.53;;;2.33;;
17528;SDS011;8882;53.192;8.184;2024-02-16T06:49:31;4.30;;;2.63;;
17528;SDS011;8882;53.192;8.184;2024-02-16T06:51:57;5.63;;;2.50;;
17528;SDS011;8882;53.192;8.184;2024-02-16T06:54:22;3.10;;;2.30;;
17528;SDS011;8882;53.192;8.184;2024-02-16T06:56:49;3.07;;;2.60;;
17528;SDS011;8882;53.192;8.184;2024-02-16T06:59:16;4.10;;;2.57;;
17528;SDS011;8882;53.192;8.184;2024-02-16T07:01:42;4.13;;;2.73;;
17528;SDS011;8882;53.192;8.184;2024-02-16T07:04:07;4.00;;;2.77;;
17528;SDS011;8882;53.192;8.184;2024-02-16T07:06:34;6.00;;;2.80;;
17528;SDS011;8882;53.192;8.184;2024-02-16T07:09:00;3.30;;;2.77;;
17528;SDS011;8882;53.192;8.184;2024-02-16T07:11:25;8.83;;;3.37;;
17528;SDS011;8882;53.192;8.184;2024-02-16T07:13:51;3.43;;;2.60;;
17528;SDS011;8882;53.192;8.184;2024-02-16T07:16:16;3.10;;;2.80;;
17528;SDS011;8882;53.192;8.184;2024-02-16T07:18:43;3.93;;;2.90;;
17528;SDS011;8882;53.192;8.184;2024-02-16T07:21:08;6.00;;;2.90;;
17528;SDS011;8882;53.192;8.184;2024-02-16T07:23:34;4.70;;;2.90;;
17528;SDS011;8882;53.192;8.184;2024-02-16T07:26:00;4.30;;;2.47;;
17528;SDS011;8882;53.192;8.184;2024-02-16T07:28:26;2.63;;;2.43;;
17528;SDS011;8882;53.192;8.184;2024-02-16T07:30:52;4.03;;;2.73;;
17528;SDS011;8882;53.192;8.184;2024-02-16T07:33:18;6.60;;;2.70;;
17528;SDS011;8882;53.192;8.184;2024-02-16T07:35:44;5.17;;;2.20;;
17528;SDS011;8882;53.192;8.184;2024-02-16T07:38:09;5.50;;;2.60;;
17528;SDS011;8882;53.192;8.184;2024-02-16T07:40:35;4.27;;;2.60;;
17528;SDS011;8882;53.192;8.184;2024-02-16T07:43:01;4.27;;;2.40;;
17528;SDS011;8882;53.192;8.184;2024-02-16T07:45:28;5.73;;;2.60;;
17528;SDS011;8882;53.192;8.184;2024-02-16T07:47:53;2.60;;;2.30;;
17528;SDS011;8882;53.192;8.184;2024-02-16T07:50:22;4.27;;;2.80;;
17528;SDS011;8882;53.192;8.184;2024-02-16T07:52:48;5.17;;;2.30;;
17528;SDS011;8882;53.192;8.184;2024-02-16T07:55:14;5.33;;;2.47;;
17528;SDS011;8882;53.192;8.184;2024-02-16T07:57:40;5.17;;;2.40;;
17528;SDS011;8882;53.192;8.184;2024-02-16T08:00:05;2.87;;;2.33;;
17528;SDS011;8882;53.192;8.184;2024-02-16T08:02:31;2.83;;;2.13;;
17528;SDS011;8882;53.192;8.184;2024-02-16T08:04:58;3.10;;;1.90;;
17528;SDS011;8882;53.192;8.184;2024-02-16T08:07:24;5.57;;;2.50;;
17528;SDS011;8882;53.192;8.184;2024-02-16T08:09:49;4.80;;;2.77;;
17528;SDS011;8882;53.192;8.184;2024-02-16T08:12:15;4.03;;;2.40;;
17528;SDS011;8882;53.192;8.184;2024-02-16T08:14:42;2.53;;;2.13;;
17528;SDS011;8882;53.192;8.184;2024-02-16T08:17:08;3.50;;;2.33;;
17528;SDS011;8882;53.192;8.184;2024-02-16T08:19:36;3.43;;;2.07;;
17528;SDS011;8882;53.192;8.184;2024-02-16T08:22:03;4.60;;;2.50;;
17528;SDS011;8882;53.192;8.184;2024-02-16T08:24:31;2.43;;;2.00;;
17528;SDS011;8882;53.192;8.184;2024-02-16T08:26:57;5.27;;;2.27;;
17528;SDS011;8882;53.192;8.184;2024-02-16T08:29:23;2.40;;;2.20;;
17528;SDS011;8882;53.192;8.184;2024-02-16T08:31:50;2.30;;;2.10;;
17528;SDS011;8882;53.192;8.184;2024-02-16T08:34:16;6.70;;;2.43;;
17528;SDS011;8882;53.192;8.184;2024-02-16T08:36:45;3.47;;;2.20;;
17528;SDS011;8882;53.192;8.184;2024-02-16T08:39:14;4.90;;;2.80;;
17528;SDS011;8882;53.192;8.184;2024-02-16T08:41:40;3.20;;;2.23;;
17528;SDS011;8882;53.192;8.184;2024-02-16T08:44:06;2.67;;;2.07;;
17528;SDS011;8882;53.192;8.184;2024-02-16T08:46:35;4.67;;;2.60;;
17528;SDS011;8882;53.192;8.184;2024-02-16T08:49:05;3.83;;;2.10;;
17528;SDS011;8882;53.192;8.184;2024-02-16T08:51:33;4.93;;;2.30;;
17528;SDS011;8882;53.192;8.184;2024-02-16T08:53:59;3.63;;;2.33;;
17528;SDS011;8882;53.192;8.184;2024-02-16T08:56:25;2.33;;;1.83;;
17528;SDS011;8882;53.192;8.184;2024-02-16T08:58:51;4.20;;;2.00;;
17528;SDS011;8882;53.192;8.184;2024-02-16T09:01:17;3.30;;;2.20;;
17528;SDS011;8882;53.192;8.184;2024-02-16T09:03:43;4.03;;;2.17;;
17528;SDS011;8882;53.192;8.184;2024-02-16T09:06:08;2.37;;;2.13;;
17528;SDS011;8882;53.192;8.184;2024-02-16T09:08:34;3.57;;;2.00;;
17528;SDS011;8882;53.192;8.184;2024-02-16T09:11:03;5.03;;;1.83;;
17528;SDS011;8882;53.192;8.184;2024-02-16T09:13:32;2.63;;;1.90;;
17528;SDS011;8882;53.192;8.184;2024-02-16T09:15:59;3.30;;;2.10;;
17528;SDS011;8882;53.192;8.184;2024-02-16T09:18:25;3.23;;;2.17;;
17528;SDS011;8882;53.192;8.184;2024-02-16T09:20:50;6.53;;;2.57;;
17528;SDS011;8882;53.192;8.184;2024-02-16T09:23:16;3.80;;;2.27;;
17528;SDS011;8882;53.192;8.184;2024-02-16T09:25:42;3.03;;;2.20;;
17528;SDS011;8882;53.192;8.184;2024-02-16T09:28:08;5.60;;;2.30;;
17528;SDS011;8882;53.192;8.184;2024-02-16T09:30:36;4.37;;;2.47;;
17528;SDS011;8882;53.192;8.184;2024-02-16T09:33:02;2.60;;;2.10;;
17528;SDS011;8882;53.192;8.184;2024-02-16T09:35:28;5.60;;;2.30;;
17528;SDS011;8882;53.192;8.184;2024-02-16T09:37:53;4.23;;;2.40;;
17528;SDS011;8882;53.192;8.184;2024-02-16T09:40:19;3.07;;;2.00;;
17528;SDS011;8882;53.192;8.184;2024-02-16T09:42:47;2.77;;;1.83;;
17528;SDS011;8882;53.192;8.184;2024-02-16T09:45:14;4.10;;;2.17;;
17528;SDS011;8882;53.192;8.184;2024-02-16T09:47:41;2.17;;;1.90;;
17528;SDS011;8882;53.192;8.184;2024-02-16T09:50:09;4.53;;;2.13;;
17528;SDS011;8882;53.192;8.184;2024-02-16T09:52:35;2.13;;;2.00;;
17528;SDS011;8882;53.192;8.184;2024-02-16T09:55:01;3.77;;;2.50;;
17528;SDS011;8882;53.192;8.184;2024-02-16T09:57:27;2.53;;;2.33;;
17528;SDS011;8882;53.192;8.184;2024-02-16T09:59:52;3.27;;;2.33;;
17528;SDS011;8882;53.192;8.184;2024-02-16T10:02:18;6.07;;;2.50;;
17528;SDS011;8882;53.192;8.184;2024-02-16T10:04:44;2.90;;;2.53;;
17528;SDS011;8882;53.192;8.184;2024-02-16T10:07:09;3.53;;;2.23;;
17528;SDS011;8882;53.192;8.184;2024-02-16T10:09:35;3.83;;;2.33;;
17528;SDS011;8882;53.192;8.184;2024-02-16T10:12:00;3.60;;;2.03;;
17528;SDS011;8882;53.192;8.184;2024-02-16T10:14:26;2.83;;;2.43;;
17528;SDS011;8882;53.192;8.184;2024-02-16T10:16:59;5.27;;;2.63;;
17528;SDS011;8882;53.192;8.184;2024-02-16T10:19:25;3.40;;;2.50;;
17528;SDS011;8882;53.192;8.184;2024-02-16T10:21:51;4.33;;;2.70;;
17528;SDS011;8882;53.192;8.184;2024-02-16T10:24:20;3.13;;;2.43;;
17528;SDS011;8882;53.192;8.184;2024-02-16T10:26:46;3.90;;;2.47;;
17528;SDS011;8882;53.192;8.184;2024-02-16T10:29:14;4.60;;;2.63;;
17528;SDS011;8882;53.192;8.184;2024-02-16T10:31:44;4.23;;;2.43;;
17528;SDS011;8882;53.192;8.184;2024-02-16T10:34:10;3.80;;;2.87;;
17528;SDS011;8882;53.192;8.184;2024-02-16T10:36:36;3.47;;;2.63;;
17528;SDS011;8882;53.192;8.184;2024-02-16T10:39:04;5.03;;;2.80;;
17528;SDS011;8882;53.192;8.184;2024-02-16T10:41:34;4.07;;;2.70;;
17528;SDS011;8882;53.192;8.184;2024-02-16T10:44:05;3.87;;;2.70;;
17528;SDS011;8882;53.192;8.184;2024-02-16T10:46:31;5.10;;;2.90;;
17528;SDS011;8882;53.192;8.184;2024-02-16T10:48:57;6.33;;;2.87;;
17528;SDS011;8882;53.192;8.184;2024-02-16T10:51:29;5.33;;;2.87;;
17528;SDS011;8882;53.192;8.184;2024-02-16T10:53:59;3.30;;;2.60;;
17528;SDS011;8882;53.192;8.184;2024-02-16T10:56:27;3.30;;;2.77;;
17528;SDS011;8882;53.192;8.184;2024-02-16T10:59:00;7.03;;;3.33;;
17528;SDS011;8882;53.192;8.184;2024-02-16T11:01:43;4.33;;;2.70;;
17528;SDS011;8882;53.192;8.184;2024-02-16T11:04:17;3.83;;;2.73;;
17528;SDS011;8882;53.192;8.184;2024-02-16T11:06:46;5.13;;;3.00;;
17528;SDS011;8882;53.192;8.184;2024-02-16T11:09:23;7.63;;;3.50;;
17528;SDS011;8882;53.192;8.184;2024-02-16T11:11:52;6.87;;;3.20;;
17528;SDS011;8882;53.192;8.184;2024-02-16T11:14:18;5.10;;;2.87;;
17528;SDS011;8882;53.192;8.184;2024-02-16T11:16:46;5.27;;;3.00;;
17528;SDS011;8882;53.192;8.184;2024-02-16T11:19:11;7.57;;;3.03;;
17528;SDS011;8882;53.192;8.184;2024-02-16T11:21:39;7.67;;;3.30;;
17528;SDS011;8882;53.192;8.184;2024-02-16T11:24:07;4.43;;;3.20;;
17528;SDS011;8882;53.192;8.184;2024-02-16T11:26:41;3.47;;;2.80;;
17528;SDS011;8882;53.192;8.184;2024-02-16T11:29:08;5.30;;;3.17;;
17528;SDS011;8882;53.192;8.184;2024-02-16T11:31:35;6.30;;;2.87;;
17528;SDS011;8882;53.192;8.184;2024-02-16T11:34:00;5.47;;;3.03;;
17528;SDS011;8882;53.192;8.184;2024-02-16T11:36:26;5.33;;;3.70;;
17528;SDS011;8882;53.192;8.184;2024-02-16T11:38:52;4.77;;;2.97;;
17528;SDS011;8882;53.192;8.184;2024-02-16T11:41:18;3.70;;;3.00;;
17528;SDS011;8882;53.192;8.184;2024-02-16T11:43:46;5.43;;;3.10;;
17528;SDS011;8882;53.192;8.184;2024-02-16T11:46:12;6.13;;;3.60;;
17528;SDS011;8882;53.192;8.184;2024-02-16T11:48:39;5.20;;;3.70;;
17528;SDS011;8882;53.192;8.184;2024-02-16T11:51:04;5.63;;;3.27;;
17528;SDS011;8882;53.192;8.184;2024-02-16T11:53:30;5.93;;;3.30;;
17528;SDS011;8882;53.192;8.184;2024-02-16T11:55:56;4.20;;;3.33;;
17528;SDS011;8882;53.192;8.184;2024-02-16T11:58:22;4.10;;;3.33;;
17528;SDS011;8882;53.192;8.184;2024-02-16T12:00:49;6.00;;;3.33;;
17528;SDS011;8882;53.192;8.184;2024-02-16T12:03:23;5.10;;;3.10;;
17528;SDS011;8882;53.192;8.184;2024-02-16T12:05:50;5.93;;;3.10;;
17528;SDS011;8882;53.192;8.184;2024-02-16T12:08:20;5.60;;;3.33;;
17528;SDS011;8882;53.192;8.184;2024-02-16T12:10:50;3.57;;;3.03;;
17528;SDS011;8882;53.192;8.184;2024-02-16T12:13:16;4.87;;;3.57;;
17528;SDS011;8882;53.192;8.184;2024-02-16T12:15:46;8.80;;;3.70;;
17528;SDS011;8882;53.192;8.184;2024-02-16T12:18:19;5.63;;;3.37;;
17528;SDS011;8882;53.192;8.184;2024-02-16T12:20:56;4.97;;;3.73;;
17528;SDS011;8882;53.192;8.184;2024-02-16T12:23:25;5.10;;;3.53;;
17528;SDS011;8882;53.192;8.184;2024-02-16T12:25:51;7.57;;;3.60;;
17528;SDS011;8882;53.192;8.184;2024-02-16T12:28:17;6.17;;;4.00;;
17528;SDS011;8882;53.192;8.184;2024-02-16T12:30:45;6.17;;;3.57;;
17528;SDS011;8882;53.192;8.184;2024-02-16T12:33:13;4.77;;;3.70;;
17528;SDS011;8882;53.192;8.184;2024-02-16T12:35:39;8.27;;;3.57;;
17528;SDS011;8882;53.192;8.184;2024-02-16T12:38:05;6.27;;;4.20;;
17528;SDS011;8882;53.192;8.184;2024-02-16T12:40:30;4.37;;;3.57;;
17528;SDS011;8882;53.192;8.184;2024-02-16T12:42:56;5.47;;;3.90;;
17528;SDS011;8882;53.192;8.184;2024-02-16T12:45:22;9.80;;;4.47;;
17528;SDS011;8882;53.192;8.184;2024-02-16T12:47:49;5.00;;;4.27;;
17528;SDS011;8882;53.192;8.184;2024-02-16T12:50:15;5.23;;;3.70;;
17528;SDS011;8882;53.192;8.184;2024-02-16T12:52:42;6.80;;;4.70;;
17528;SDS011;8882;53.192;8.184;2024-02-16T12:55:08;6.97;;;4.67;;
17528;SDS011;8882;53.192;8.184;2024-02-16T12:57:36;7.67;;;4.90;;
17528;SDS011;8882;53.192;8.184;2024-02-16T13:00:02;6.87;;;4.93;;
17528;SDS011;8882;53.192;8.184;2024-02-16T13:02:28;5.97;;;4.73;;
17528;SDS011;8882;53.192;8.184;2024-02-16T13:04:54;5.27;;;4.77;;
17528;SDS011;8882;53.192;8.184;2024-02-16T13:07:20;10.40;;;4.97;;
17528;SDS011;8882;53.192;8.184;2024-02-16T13:09:45;6.47;;;5.30;;
17528;SDS011;8882;53.192;8.184;2024-02-16T13:12:11;11.13;;;6.00;;
17528;SDS011;8882;53.192;8.184;2024-02-16T13:14:36;8.23;;;5.50;;
17528;SDS011;8882;53.192;8.184;2024-02-16T13:17:02;10.30;;;5.93;;
17528;SDS011;8882;53.192;8.184;2024-02-16T13:19:28;7.77;;;5.93;;
17528;SDS011;8882;53.192;8.184;2024-02-16T13:21:54;7.07;;;5.80;;
17528;SDS011;8882;53.192;8.184;2024-02-16T13:24:19;7.50;;;6.17;;
17528;SDS011;8882;53.192;8.184;2024-02-16T13:26:45;9.67;;;5.97;;
17528;SDS011;8882;53.192;8.184;2024-02-16T13:29:10;9.47;;;6.77;;
17528;SDS011;8882;53.192;8.184;2024-02-16T13:31:36;10.47;;;7.00;;
17528;SDS011;8882;53.192;8.184;2024-02-16T13:34:01;7.90;;;6.20;;
17528;SDS011;8882;53.192;8.184;2024-02-16T13:36:27;9.07;;;6.87;;
17528;SDS011;8882;53.192;8.184;2024-02-16T13:38:52;11.50;;;7.43;;
17528;SDS011;8882;53.192;8.184;2024-02-16T13:41:18;10.23;;;7.60;;
17528;SDS011;8882;53.192;8.184;2024-02-16T13:43:43;10.37;;;6.97;;
17528;SDS011;8882;53.192;8.184;2024-02-16T13:46:09;10.47;;;7.37;;
17528;SDS011;8882;53.192;8.184;2024-02-16T13:48:35;8.27;;;7.17;;
17528;SDS011;8882;53.192;8.184;2024-02-16T13:51:02;11.20;;;7.23;;
17528;SDS011;8882;53.192;8.184;2024-02-16T13:53:28;11.57;;;7.37;;
17528;SDS011;8882;53.192;8.184;2024-02-16T13:55:54;10.20;;;7.63;;
17528;SDS011;8882;53.192;8.184;2024-02-16T13:58:20;8.57;;;7.57;;
17528;SDS011;8882;53.192;8.184;2024-02-16T14:00:46;12.10;;;8.60;;
17528;SDS011;8882;53.192;8.184;2024-02-16T14:03:13;10.07;;;7.83;;
17528;SDS011;8882;53.192;8.184;2024-02-16T14:05:40;11.90;;;7.80;;
17528;SDS011;8882;53.192;8.184;2024-02-16T14:08:07;10.50;;;8.00;;
17528;SDS011;8882;53.192;8.184;2024-02-16T14:10:34;9.60;;;8.17;;
17528;SDS011;8882;53.192;8.184;2024-02-16T14:13:00;10.90;;;8.20;;
17528;SDS011;8882;53.192;8.184;2024-02-16T14:15:25;11.80;;;8.33;;
17528;SDS011;8882;53.192;8.184;2024-02-16T14:17:51;9.73;;;8.00;;
17528;SDS011;8882;53.192;8.184;2024-02-16T14:20:16;10.27;;;7.77;;
17528;SDS011;8882;53.192;8.184;2024-02-16T14:22:42;10.57;;;8.07;;
17528;SDS011;8882;53.192;8.184;2024-02-16T14:25:07;12.13;;;8.20;;
17528;SDS011;8882;53.192;8.184;2024-02-16T14:27:36;8.97;;;7.40;;
17528;SDS011;8882;53.192;8.184;2024-02-16T14:30:02;9.80;;;7.93;;
17528;SDS011;8882;53.192;8.184;2024-02-16T14:32:28;8.37;;;7.00;;
17528;SDS011;8882;53.192;8.184;2024-02-16T14:34:54;9.90;;;6.97;;
17528;SDS011;8882;53.192;8.184;2024-02-16T14:37:19;9.50;;;7.23;;
17528;SDS011;8882;53.192;8.184;2024-02-16T14:39:45;8.27;;;6.63;;
17528;SDS011;8882;53.192;8.184;2024-02-16T14:42:11;7.67;;;6.50;;
17528;SDS011;8882;53.192;8.184;2024-02-16T14:44:37;6.73;;;5.63;;
17528;SDS011;8882;53.192;8.184;2024-02-16T14:47:02;8.83;;;6.03;;
17528;SDS011;8882;53.192;8.184;2024-02-16T14:49:28;6.03;;;4.83;;
17528;SDS011;8882;53.192;8.184;2024-02-16T14:51:56;6.97;;;5.40;;
17528;SDS011;8882;53.192;8.184;2024-02-16T14:54:21;6.87;;;4.83;;
17528;SDS011;8882;53.192;8.184;2024-02-16T14:56:50;6.70;;;4.80;;
17528;SDS011;8882;53.192;8.184;2024-02-16T14:59:16;5.70;;;4.57;;
17528;SDS011;8882;53.192;8.184;2024-02-16T15:01:41;6.13;;;4.50;;
17528;SDS011;8882;53.192;8.184;2024-02-16T15:04:07;5.33;;;4.50;;
17528;SDS011;8882;53.192;8.184;2024-02-16T15:06:32;6.13;;;4.80;;
17528;SDS011;8882;53.192;8.184;2024-02-16T15:08:59;6.07;;;3.80;;
17528;SDS011;8882;53.192;8.184;2024-02-16T15:11:24;5.10;;;4.17;;
17528;SDS011;8882;53.192;8.184;2024-02-16T15:13:50;6.10;;;4.60;;
17528;SDS011;8882;53.192;8.184;2024-02-16T15:16:16;5.87;;;4.30;;
17528;SDS011;8882;53.192;8.184;2024-02-16T15:18:41;4.33;;;3.20;;
17528;SDS011;8882;53.192;8.184;2024-02-16T15:21:07;3.83;;;3.40;;
17528;SDS011;8882;53.192;8.184;2024-02-16T15:23:32;4.63;;;3.10;;
17528;SDS011;8882;53.192;8.184;2024-02-16T15:25:58;4.27;;;3.00;;
17528;SDS011;8882;53.192;8.184;2024-02-16T15:28:24;3.07;;;2.73;;
17528;SDS011;8882;53.192;8.184;2024-02-16T15:30:50;4.00;;;2.80;;
17528;SDS011;8882;53.192;8.184;2024-02-16T15:33:16;3.10;;;2.80;;
17528;SDS011;8882;53.192;8.184;2024-02-16T15:35:41;4.40;;;2.90;;
17528;SDS011;8882;53.192;8.184;2024-02-16T15:38:07;2.53;;;2.33;;
17528;SDS011;8882;53.192;8.184;2024-02-16T15:40:32;3.00;;;2.60;;
17528;SDS011;8882;53.192;8.184;2024-02-16T15:42:58;2.57;;;2.37;;
17528;SDS011;8882;53.192;8.184;2024-02-16T15:45:26;3.30;;;2.47;;
17528;SDS011;8882;53.192;8.184;2024-02-16T15:47:51;3.10;;;2.80;;
17528;SDS011;8882;53.192;8.184;2024-02-16T15:50:17;3.07;;;2.50;;
17528;SDS011;8882;53.192;8.184;2024-02-16T15:52:42;2.40;;;2.20;;
17528;SDS011;8882;53.192;8.184;2024-02-16T15:55:08;6.60;;;4.03;;
17528;SDS011;8882;53.192;8.184;2024-02-16T15:57:33;3.80;;;2.23;;
17528;SDS011;8882;53.192;8.184;2024-02-16T15:59:59;2.10;;;1.90;;
17528;SDS011;8882;53.192;8.184;2024-02-16T16:02:24;2.17;;;1.90;;
17528;SDS011;8882;53.192;8.184;2024-02-16T16:04:50;1.90;;;1.70;;
17528;SDS011;8882;53.192;8.184;2024-02-16T16:07:16;2.83;;;1.60;;
17528;SDS011;8882;53.192;8.184;2024-02-16T16:09:41;1.80;;;1.70;;
17528;SDS011;8882;53.192;8.184;2024-02-16T16:12:07;2.17;;;1.97;;
17528;SDS011;8882;53.192;8.184;2024-02-16T16:14:33;2.20;;;2.00;;
17528;SDS011;8882;53.192;8.184;2024-02-16T16:16:58;2.30;;;1.80;;
17528;SDS011;8882;53.192;8.184;2024-02-16T16:19:24;2.30;;;2.10;;
17528;SDS011;8882;53.192;8.184;2024-02-16T16:21:49;1.90;;;1.80;;
17528;SDS011;8882;53.192;8.184;2024-02-16T16:24:15;2.50;;;2.17;;
17528;SDS011;8882;53.192;8.184;2024-02-16T16:26:42;2.60;;;1.87;;
17528;SDS011;8882;53.192;8.184;2024-02-16T16:29:09;2.20;;;2.00;;
17528;SDS011;8882;53.192;8.184;2024-02-16T16:31:35;3.17;;;2.40;;
17528;SDS011;8882;53.192;8.184;2024-02-16T16:34:01;2.40;;;2.20;;
17528;SDS011;8882;53.192;8.184;2024-02-16T16:36:26;2.97;;;2.07;;
17528;SDS011;8882;53.192;8.184;2024-02-16T16:38:52;2.50;;;2.30;;
17528;SDS011;8882;53.192;8.184;2024-02-16T16:41:18;2.20;;;2.00;;
17528;SDS011;8882;53.192;8.184;2024-02-16T16:43:44;2.33;;;2.00;;
17528;SDS011;8882;53.192;8.184;2024-02-16T16:46:09;1.83;;;1.70;;
17528;SDS011;8882;53.192;8.184;2024-02-16T16:48:35;1.83;;;1.60;;
17528;SDS011;8882;53.192;8.184;2024-02-16T16:51:01;1.83;;;1.73;;
17528;SDS011;8882;53.192;8.184;2024-02-16T16:53:27;1.97;;;1.83;;
17528;SDS011;8882;53.192;8.184;2024-02-16T16:55:53;1.77;;;1.67;;
17528;SDS011;8882;53.192;8.184;2024-02-16T16:58:19;2.83;;;1.80;;
17528;SDS011;8882;53.192;8.184;2024-02-16T17:00:44;2.20;;;2.00;;
17528;SDS011;8882;53.192;8.184;2024-02-16T17:03:10;2.43;;;1.90;;
17528;SDS011;8882;53.192;8.184;2024-02-16T17:05:36;2.83;;;2.37;;
17528;SDS011;8882;53.192;8.184;2024-02-16T17:08:01;3.60;;;2.40;;
17528;SDS011;8882;53.192;8.184;2024-02-16T17:10:27;2.77;;;2.23;;
17528;SDS011;8882;53.192;8.184;2024-02-16T17:12:52;2.60;;;2.40;;
17528;SDS011;8882;53.192;8.184;2024-02-16T17:15:18;3.07;;;2.77;;
17528;SDS011;8882;53.192;8.184;2024-02-16T17:17:43;3.13;;;2.60;;
17528;SDS011;8882;53.192;8.184;2024-02-16T17:20:13;3.10;;;2.77;;
17528;SDS011;8882;53.192;8.184;2024-02-16T17:22:39;3.30;;;3.00;;
17528;SDS011;8882;53.192;8.184;2024-02-16T17:25:05;3.27;;;2.83;;
17528;SDS011;8882;53.192;8.184;2024-02-16T17:27:33;2.73;;;2.53;;
17528;SDS011;8882;53.192;8.184;2024-02-16T17:29:59;2.80;;;2.57;;
17528;SDS011;8882;53.192;8.184;2024-02-16T17:32:27;2.77;;;2.50;;
17528;SDS011;8882;53.192;8.184;2024-02-16T17:34:52;3.57;;;3.07;;
17528;SDS011;8882;53.192;8.184;2024-02-16T17:37:18;3.80;;;2.83;;
17528;SDS011;8882;53.192;8.184;2024-02-16T17:39:43;3.37;;;3.07;;
17528;SDS011;8882;53.192;8.184;2024-02-16T17:42:13;3.47;;;2.90;;
17528;SDS011;8882;53.192;8.184;2024-02-16T17:44:39;3.77;;;3.20;;
17528;SDS011;8882;53.192;8.184;2024-02-16T17:47:04;3.53;;;2.90;;
17528;SDS011;8882;53.192;8.184;2024-02-16T17:49:30;4.20;;;3.40;;
17528;SDS011;8882;53.192;8.184;2024-02-16T17:51:55;3.47;;;3.10;;
17528;SDS011;8882;53.192;8.184;2024-02-16T17:54:21;4.07;;;3.20;;
17528;SDS011;8882;53.192;8.184;2024-02-16T17:56:46;3.50;;;2.90;;
17528;SDS011;8882;53.192;8.184;2024-02-16T17:59:13;3.07;;;2.77;;
17528;SDS011;8882;53.192;8.184;2024-02-16T18:01:38;3.43;;;2.80;;
17528;SDS011;8882;53.192;8.184;2024-02-16T18:04:06;3.10;;;2.77;;
17528;SDS011;8882;53.192;8.184;2024-02-16T18:06:32;4.17;;;2.67;;
17528;SDS011;8882;53.192;8.184;2024-02-16T18:08:59;3.20;;;2.60;;
17528;SDS011;8882;53.192;8.184;2024-02-16T18:11:25;4.53;;;2.90;;
17528;SDS011;8882;53.192;8.184;2024-02-16T18:13:51;3.17;;;2.87;;
17528;SDS011;8882;53.192;8.184;2024-02-16T18:16:17;3.20;;;2.93;;
17528;SDS011;8882;53.192;8.184;2024-02-16T18:18:43;3.40;;;3.10;;
17528;SDS011;8882;53.192;8.184;2024-02-16T18:21:08;4.07;;;3.23;;
17528;SDS011;8882;53.192;8.184;2024-02-16T18:23:34;3.50;;;3.13;;
17528;SDS011;8882;53.192;8.184;2024-02-16T18:25:59;3.63;;;3.30;;
17528;SDS011;8882;53.192;8.184;2024-02-16T18:28:25;5.47;;;3.20;;
17528;SDS011;8882;53.192;8.184;2024-02-16T18:30:51;3.70;;;3.40;;
17528;SDS011;8882;53.192;8.184;2024-02-16T18:33:18;3.80;;;3.40;;
17528;SDS011;8882;53.192;8.184;2024-02-16T18:35:43;5.67;;;3.57;;
17528;SDS011;8882;53.192;8.184;2024-02-16T18:38:09;4.77;;;3.43;;
17528;SDS011;8882;53.192;8.184;2024-02-16T18:40:34;3.93;;;3.53;;
17528;SDS011;8882;53.192;8.184;2024-02-16T18:43:00;5.27;;;3.63;;
17528;SDS011;8882;53.192;8.184;2024-02-16T18:45:26;4.27;;;3.80;;
17528;SDS011;8882;53.192;8.184;2024-02-16T18:47:52;4.83;;;4.07;;
17528;SDS011;8882;53.192;8.184;2024-02-16T18:50:19;4.20;;;3.80;;
17528;SDS011;8882;53.192;8.184;2024-02-16T18:52:45;4.47;;;3.87;;
17528;SDS011;8882;53.192;8.184;2024-02-16T18:55:10;5.63;;;4.50;;
17528;SDS011;8882;53.192;8.184;2024-02-16T18:57:36;4.80;;;4.30;;
17528;SDS011;8882;53.192;8.184;2024-02-16T19:00:02;5.07;;;4.40;;
17528;SDS011;8882;53.192;8.184;2024-02-16T19:02:29;5.67;;;4.87;;
17528;SDS011;8882;53.192;8.184;2024-02-16T19:04:55;5.40;;;4.90;;
17528;SDS011;8882;53.192;8.184;2024-02-16T19:07:22;5.33;;;4.80;;
17528;SDS011;8882;53.192;8.184;2024-02-16T19:09:48;4.47;;;4.03;;
17528;SDS011;8882;53.192;8.184;2024-02-16T19:12:16;7.23;;;4.67;;
17528;SDS011;8882;53.192;8.184;2024-02-16T19:14:42;5.97;;;4.80;;
17528;SDS011;8882;53.192;8.184;2024-02-16T19:17:07;6.53;;;4.30;;
17528;SDS011;8882;53.192;8.184;2024-02-16T19:19:33;4.80;;;3.70;;
17528;SDS011;8882;53.192;8.184;2024-02-16T19:21:58;4.33;;;3.67;;
17528;SDS011;8882;53.192;8.184;2024-02-16T19:24:24;6.10;;;3.97;;
17528;SDS011;8882;53.192;8.184;2024-02-16T19:26:50;5.33;;;3.90;;
17528;SDS011;8882;53.192;8.184;2024-02-16T19:29:15;5.90;;;4.20;;
17528;SDS011;8882;53.192;8.184;2024-02-16T19:31:41;8.93;;;4.27;;
17528;SDS011;8882;53.192;8.184;2024-02-16T19:34:07;6.20;;;3.20;;
17528;SDS011;8882;53.192;8.184;2024-02-16T19:36:32;10.67;;;7.10;;
17528;SDS011;8882;53.192;8.184;2024-02-16T19:38:58;4.50;;;3.97;;
17528;SDS011;8882;53.192;8.184;2024-02-16T19:41:23;10.83;;;7.57;;
17528;SDS011;8882;53.192;8.184;2024-02-16T19:43:49;17.17;;;12.37;;
17528;SDS011;8882;53.192;8.184;2024-02-16T19:46:14;8.27;;;6.27;;
17528;SDS011;8882;53.192;8.184;2024-02-16T19:48:40;4.63;;;3.70;;
17528;SDS011;8882;53.192;8.184;2024-02-16T19:51:05;4.40;;;3.70;;
17528;SDS011;8882;53.192;8.184;2024-02-16T19:53:31;4.23;;;3.80;;
17528;SDS011;8882;53.192;8.184;2024-02-16T19:55:57;4.33;;;3.43;;
17528;SDS011;8882;53.192;8.184;2024-02-16T19:58:22;20.13;;;10.47;;
17528;SDS011;8882;53.192;8.184;2024-02-16T20:00:49;23.80;;;12.13;;
17528;SDS011;8882;53.192;8.184;2024-02-16T20:03:16;21.40;;;11.57;;
17528;SDS011;8882;53.192;8.184;2024-02-16T20:05:42;13.97;;;8.63;;
17528;SDS011;8882;53.192;8.184;2024-02-16T20:08:08;10.87;;;6.50;;
17528;SDS011;8882;53.192;8.184;2024-02-16T20:10:33;8.70;;;5.47;;
17528;SDS011;8882;53.192;8.184;2024-02-16T20:12:59;10.33;;;6.57;;